createdAt,value
2024-04-30T00:01:44.916Z,3.25
2024-04-30T00:04:15.093Z,3.30
2024-04-30T00:06:42.303Z,3.90
2024-04-30T00:09:09.221Z,3.30
2024-04-30T00:11:43.539Z,3.05
2024-04-30T00:14:11.135Z,2.95
2024-04-30T00:16:42.251Z,2.70
2024-04-30T00:19:09.444Z,3.00
2024-04-30T00:21:45.897Z,3.08
2024-04-30T00:24:12.822Z,3.50
2024-04-30T00:26:40.097Z,2.97
2024-04-30T00:29:07.380Z,3.55
2024-04-30T00:31:34.453Z,2.97
2024-04-30T00:34:01.439Z,3.08
2024-04-30T00:36:28.421Z,3.55
2024-04-30T00:38:55.337Z,3.95
2024-04-30T00:41:22.383Z,3.22
2024-04-30T00:43:49.245Z,3.47
2024-04-30T00:46:16.278Z,2.20
2024-04-30T00:48:44.531Z,2.78
2024-04-30T00:51:13.621Z,2.58
2024-04-30T00:53:43.852Z,2.53
2024-04-30T00:56:11.218Z,3.13
2024-04-30T00:58:38.203Z,4.80
2024-04-30T01:01:05.756Z,4.40
2024-04-30T01:03:32.853Z,4.30
2024-04-30T01:05:59.900Z,3.97
2024-04-30T01:08:26.815Z,3.88
2024-04-30T01:10:53.671Z,4.57
2024-04-30T01:13:20.905Z,4.13
2024-04-30T01:15:48.289Z,4.20
2024-04-30T01:18:15.563Z,3.30
2024-04-30T01:20:42.662Z,4.25
2024-04-30T01:23:09.598Z,3.33
2024-04-30T01:25:36.470Z,3.33
2024-04-30T01:28:03.805Z,2.80
2024-04-30T01:30:30.723Z,2.45
2024-04-30T01:32:57.764Z,4.20
2024-04-30T01:35:24.695Z,3.30
2024-04-30T01:37:51.597Z,2.72
2024-04-30T01:40:18.614Z,3.35
2024-04-30T01:42:45.725Z,2.88
2024-04-30T01:45:12.632Z,2.65
2024-04-30T01:47:39.631Z,2.88
2024-04-30T01:50:07.233Z,3.10
2024-04-30T01:52:34.266Z,2.42
2024-04-30T01:55:01.378Z,2.58
2024-04-30T01:57:28.408Z,3.13
2024-04-30T01:59:55.257Z,3.45
2024-04-30T02:02:22.222Z,3.10
2024-04-30T02:04:53.308Z,3.00
2024-04-30T02:07:21.119Z,2.55
2024-04-30T02:09:48.168Z,3.65
2024-04-30T02:12:15.230Z,3.25
2024-04-30T02:14:42.320Z,3.00
2024-04-30T02:17:09.228Z,2.83
2024-04-30T02:19:36.140Z,4.03
2024-04-30T02:22:03.114Z,2.53
2024-04-30T02:24:30.072Z,3.53
2024-04-30T02:26:56.981Z,2.90
2024-04-30T02:29:23.878Z,2.80
2024-04-30T02:32:09.675Z,2.67
2024-04-30T02:34:36.708Z,2.67
2024-04-30T02:37:03.783Z,3.35
2024-04-30T02:39:30.755Z,4.75
2024-04-30T02:41:57.666Z,2.30
2024-04-30T02:44:24.542Z,4.32
2024-04-30T02:46:51.466Z,2.70
2024-04-30T02:49:18.452Z,5.22
2024-04-30T02:51:45.960Z,2.63
2024-04-30T02:54:12.954Z,3.22
2024-04-30T02:56:39.865Z,4.10
2024-04-30T02:59:06.856Z,2.65
2024-04-30T03:01:33.765Z,2.47
2024-04-30T03:04:00.998Z,5.60
2024-04-30T03:06:27.908Z,2.58
2024-04-30T03:08:55.132Z,3.30
2024-04-30T03:11:22.265Z,2.75
2024-04-30T03:13:49.228Z,3.15
2024-04-30T03:16:16.222Z,3.03
2024-04-30T03:18:43.153Z,2.35
2024-04-30T03:21:13.461Z,3.60
2024-04-30T03:23:40.617Z,3.70
2024-04-30T03:26:07.543Z,3.00
2024-04-30T03:28:34.669Z,2.58
2024-04-30T03:31:03.214Z,2.80
2024-04-30T03:33:30.332Z,2.67
2024-04-30T03:35:57.324Z,3.40
2024-04-30T03:38:24.228Z,4.28
2024-04-30T03:40:51.322Z,3.30
2024-04-30T03:43:18.320Z,3.33
2024-04-30T03:45:45.349Z,3.10
2024-04-30T03:48:12.270Z,3.08
2024-04-30T03:50:39.178Z,3.33
2024-04-30T03:53:06.182Z,2.70
2024-04-30T03:55:33.275Z,3.60
2024-04-30T03:58:00.304Z,2.75
2024-04-30T04:00:27.251Z,4.25
2024-04-30T04:02:54.177Z,3.88
2024-04-30T04:05:21.128Z,2.90
2024-04-30T04:07:48.002Z,3.60
2024-04-30T04:10:15.006Z,4.88
2024-04-30T04:13:17.290Z,2.80
2024-04-30T04:15:44.189Z,2.53
2024-04-30T04:18:11.102Z,4.13
2024-04-30T04:20:37.999Z,3.65
2024-04-30T04:23:05.094Z,3.22
2024-04-30T04:25:31.996Z,4.03
2024-04-30T04:27:58.924Z,4.35
2024-04-30T04:30:25.812Z,4.38
2024-04-30T04:32:52.778Z,3.05
2024-04-30T04:35:19.766Z,3.78
2024-04-30T04:37:46.622Z,3.95
2024-04-30T04:40:13.680Z,4.10
2024-04-30T04:42:40.643Z,4.40
2024-04-30T04:45:07.654Z,4.03
2024-04-30T04:47:34.762Z,4.00
2024-04-30T04:50:01.775Z,4.43
2024-04-30T04:52:28.689Z,3.60
2024-04-30T04:54:55.633Z,3.13
2024-04-30T04:57:22.519Z,4.40
2024-04-30T04:59:49.392Z,3.65
2024-04-30T05:02:16.418Z,3.60
2024-04-30T05:04:43.594Z,4.35
2024-04-30T05:07:10.576Z,4.00
2024-04-30T05:09:37.528Z,4.32
2024-04-30T05:12:04.868Z,3.58
2024-04-30T05:14:31.822Z,3.28
2024-04-30T05:16:58.715Z,3.45
2024-04-30T05:19:25.620Z,3.60
2024-04-30T05:21:52.471Z,4.25
2024-04-30T05:24:19.394Z,3.58
2024-04-30T05:26:46.283Z,5.13
2024-04-30T05:29:13.363Z,3.60
2024-04-30T05:31:40.259Z,3.40
2024-04-30T05:34:07.269Z,3.95
2024-04-30T05:36:34.104Z,3.92
2024-04-30T05:39:03.225Z,4.05
2024-04-30T05:41:30.759Z,5.55
2024-04-30T05:43:57.644Z,4.72
2024-04-30T05:46:24.655Z,4.43
2024-04-30T05:48:51.583Z,3.67
2024-04-30T05:51:18.510Z,4.53
2024-04-30T05:53:45.359Z,4.63
2024-04-30T05:56:12.259Z,4.20
2024-04-30T05:58:39.276Z,3.45
2024-04-30T06:01:06.374Z,3.22
2024-04-30T06:03:33.495Z,3.55
2024-04-30T06:06:00.519Z,3.40
2024-04-30T06:08:27.407Z,3.05
2024-04-30T06:10:54.364Z,3.28
2024-04-30T06:13:21.309Z,3.30
2024-04-30T06:15:48.178Z,3.65
2024-04-30T06:18:15.240Z,3.63
2024-04-30T06:20:42.128Z,3.90
2024-04-30T06:23:09.058Z,3.42
2024-04-30T06:25:36.328Z,3.42
2024-04-30T06:28:03.419Z,3.13
2024-04-30T06:30:30.605Z,3.83
2024-04-30T06:32:57.538Z,3.50
2024-04-30T06:35:24.511Z,3.90
2024-04-30T06:37:56.195Z,4.43
2024-04-30T06:40:27.135Z,4.03
2024-04-30T06:42:54.410Z,4.05
2024-04-30T06:45:22.909Z,3.80
2024-04-30T06:47:50.680Z,4.00
2024-04-30T06:50:17.715Z,4.03
2024-04-30T06:52:44.552Z,8.02
2024-04-30T06:55:11.524Z,4.45
2024-04-30T06:57:38.399Z,4.22
2024-04-30T07:00:06.638Z,5.10
2024-04-30T07:02:33.594Z,3.97
2024-04-30T07:05:00.717Z,3.88
2024-04-30T07:07:27.737Z,5.15
2024-04-30T07:09:54.699Z,4.63
2024-04-30T07:12:21.612Z,4.88
2024-04-30T07:14:48.553Z,4.45
2024-04-30T07:17:15.612Z,4.88
2024-04-30T07:19:42.684Z,4.00
2024-04-30T07:22:09.616Z,3.78
2024-04-30T07:24:36.511Z,3.75
2024-04-30T07:27:03.470Z,4.22
2024-04-30T07:29:30.346Z,4.10
2024-04-30T07:31:57.240Z,4.55
2024-04-30T07:34:24.318Z,5.13
2024-04-30T07:36:51.192Z,4.90
2024-04-30T07:39:18.233Z,4.40
2024-04-30T07:41:45.149Z,3.80
2024-04-30T07:44:12.044Z,4.00
2024-04-30T07:46:38.976Z,3.80
2024-04-30T07:49:05.928Z,4.22
2024-04-30T07:51:32.818Z,3.80
2024-04-30T07:53:59.760Z,5.47
2024-04-30T07:56:26.687Z,4.43
2024-04-30T07:58:53.559Z,5.50
2024-04-30T08:01:21.528Z,4.78
2024-04-30T08:03:49.580Z,4.05
2024-04-30T08:06:20.564Z,4.65
2024-04-30T08:08:48.289Z,5.97
2024-04-30T08:11:15.903Z,5.38
2024-04-30T08:13:45.474Z,4.20
2024-04-30T08:16:13.319Z,4.30
2024-04-30T08:18:40.710Z,4.65
2024-04-30T08:21:08.538Z,4.68
2024-04-30T08:23:35.707Z,4.75
2024-04-30T08:26:02.685Z,4.30
2024-04-30T08:28:29.713Z,5.07
2024-04-30T08:30:57.028Z,5.32
2024-04-30T08:33:24.429Z,4.35
2024-04-30T08:35:51.356Z,4.72
2024-04-30T08:38:18.358Z,5.00
2024-04-30T08:40:45.447Z,4.90
2024-04-30T08:43:13.509Z,4.32
2024-04-30T08:45:43.377Z,3.92
2024-04-30T08:48:12.537Z,4.30
2024-04-30T08:50:42.505Z,4.82
2024-04-30T08:53:10.196Z,5.10
2024-04-30T08:55:40.258Z,4.45
2024-04-30T08:58:07.416Z,4.63
2024-04-30T09:00:34.965Z,4.22
2024-04-30T09:03:04.413Z,5.05
2024-04-30T09:05:33.821Z,5.15
2024-04-30T09:08:02.651Z,5.03
2024-04-30T09:10:30.546Z,4.70
2024-04-30T09:13:01.146Z,5.45
2024-04-30T09:15:28.265Z,4.63
2024-04-30T09:18:06.306Z,5.63
2024-04-30T09:20:43.644Z,4.05
2024-04-30T09:23:10.497Z,5.82
2024-04-30T09:25:37.793Z,4.85
2024-04-30T09:28:16.527Z,4.93
2024-04-30T09:30:44.677Z,4.82
2024-04-30T09:33:11.823Z,5.35
2024-04-30T09:35:38.746Z,4.43
2024-04-30T09:38:09.018Z,4.63
2024-04-30T09:40:36.496Z,4.80
2024-04-30T09:43:04.376Z,4.47
2024-04-30T09:45:32.506Z,5.60
2024-04-30T09:48:02.058Z,5.53
2024-04-30T09:50:30.278Z,5.47
2024-04-30T09:52:58.260Z,4.68
2024-04-30T09:55:27.128Z,4.80
2024-04-30T09:57:54.574Z,4.95
2024-04-30T10:00:25.186Z,4.85
2024-04-30T10:02:58.764Z,4.85
2024-04-30T10:05:33.454Z,4.88
2024-04-30T10:08:02.054Z,4.80
2024-04-30T10:10:30.727Z,5.20
2024-04-30T10:13:07.451Z,4.28
2024-04-30T10:15:34.842Z,5.35
2024-04-30T10:18:01.803Z,4.82
2024-04-30T10:20:32.630Z,3.88
2024-04-30T10:23:02.773Z,5.05
2024-04-30T10:25:30.931Z,3.95
2024-04-30T10:28:09.028Z,4.97
2024-04-30T10:30:37.394Z,5.13
2024-04-30T10:33:04.853Z,5.07
2024-04-30T10:35:44.396Z,4.43
2024-04-30T10:38:11.519Z,4.63
2024-04-30T10:40:38.636Z,4.75
2024-04-30T10:43:05.763Z,4.53
2024-04-30T10:45:32.986Z,3.90
2024-04-30T10:48:00.111Z,4.03
2024-04-30T10:50:27.199Z,4.63
2024-04-30T10:52:55.017Z,4.10
2024-04-30T10:55:22.327Z,4.47
2024-04-30T10:57:49.609Z,4.30
2024-04-30T11:00:16.703Z,5.22
2024-04-30T11:02:48.016Z,3.97
2024-04-30T11:05:18.422Z,4.07
2024-04-30T11:07:58.845Z,4.63
2024-04-30T11:10:28.783Z,4.37
2024-04-30T11:12:59.617Z,4.75
2024-04-30T11:15:27.248Z,4.78
2024-04-30T11:17:54.566Z,4.28
2024-04-30T11:20:21.653Z,4.22
2024-04-30T11:22:48.684Z,4.63
2024-04-30T11:25:15.656Z,4.75
2024-04-30T11:27:42.534Z,4.47
2024-04-30T11:30:09.964Z,5.00
2024-04-30T11:32:36.907Z,4.50
2024-04-30T11:35:04.038Z,4.93
2024-04-30T11:37:31.079Z,5.03
2024-04-30T11:39:58.076Z,4.95
2024-04-30T11:42:30.994Z,5.05
2024-04-30T11:45:03.685Z,4.80
2024-04-30T11:47:30.866Z,4.60
2024-04-30T11:49:58.733Z,4.70
2024-04-30T11:52:25.646Z,4.75
2024-04-30T11:54:52.616Z,4.65
2024-04-30T11:57:19.462Z,5.10
2024-04-30T11:59:47.225Z,5.53
2024-04-30T12:02:14.320Z,5.35
2024-04-30T12:04:41.480Z,4.82
2024-04-30T12:07:08.470Z,3.85
2024-04-30T12:09:35.459Z,4.72
2024-04-30T12:12:02.337Z,6.18
2024-04-30T12:14:29.232Z,5.53
2024-04-30T12:16:56.407Z,4.22
2024-04-30T12:19:23.447Z,5.70
2024-04-30T12:21:50.364Z,5.15
2024-04-30T12:24:17.315Z,4.35
2024-04-30T12:26:44.265Z,4.15
2024-04-30T12:29:11.166Z,3.97
2024-04-30T12:31:41.782Z,4.50
2024-04-30T12:34:08.769Z,5.25
2024-04-30T12:36:38.648Z,4.13
2024-04-30T12:39:05.769Z,3.50
2024-04-30T12:41:37.991Z,5.28
2024-04-30T12:44:04.971Z,4.85
2024-04-30T12:46:32.031Z,4.00
2024-04-30T12:49:00.087Z,4.97
2024-04-30T12:51:26.906Z,3.95
2024-04-30T12:53:53.848Z,4.60
2024-04-30T12:56:20.739Z,4.30
2024-04-30T12:58:47.658Z,5.53
2024-04-30T13:01:20.057Z,4.28
2024-04-30T13:03:50.506Z,4.50
2024-04-30T13:06:17.785Z,4.90
2024-04-30T13:08:44.902Z,3.88
2024-04-30T13:11:11.941Z,4.75
2024-04-30T13:13:38.913Z,4.65
2024-04-30T13:16:06.431Z,3.67
2024-04-30T13:18:33.537Z,4.20
2024-04-30T13:21:00.535Z,3.88
2024-04-30T13:23:27.487Z,4.40
2024-04-30T13:25:54.418Z,4.63
2024-04-30T13:28:21.358Z,4.55
2024-04-30T13:30:48.254Z,4.63
2024-04-30T13:33:17.076Z,4.55
2024-04-30T13:35:43.989Z,5.43
2024-04-30T13:38:11.057Z,3.75
2024-04-30T13:40:39.189Z,4.40
2024-04-30T13:43:06.519Z,3.58
2024-04-30T13:45:33.445Z,4.50
2024-04-30T13:48:00.573Z,4.05
2024-04-30T13:50:27.556Z,3.65
2024-04-30T13:52:54.500Z,4.18
2024-04-30T13:55:21.432Z,4.20
2024-04-30T13:57:48.331Z,4.47
2024-04-30T14:00:15.335Z,3.75
2024-04-30T14:02:45.411Z,4.28
2024-04-30T14:05:12.662Z,3.95
2024-04-30T14:07:44.680Z,3.63
2024-04-30T14:10:12.093Z,3.72
2024-04-30T14:12:39.167Z,9.80
2024-04-30T14:15:06.293Z,5.70
2024-04-30T14:17:33.232Z,4.43
2024-04-30T14:20:00.247Z,3.78
2024-04-30T14:22:27.368Z,3.58
2024-04-30T14:24:54.398Z,4.32
2024-04-30T14:27:21.345Z,4.22
2024-04-30T14:29:48.402Z,4.15
2024-04-30T14:32:15.315Z,3.38
2024-04-30T14:34:42.291Z,4.30
2024-04-30T14:37:09.234Z,3.50
2024-04-30T14:39:36.186Z,3.47
2024-04-30T14:42:03.075Z,3.30
2024-04-30T14:44:30.121Z,2.67
2024-04-30T14:46:57.037Z,3.72
2024-04-30T14:49:23.996Z,4.13
2024-04-30T14:51:50.892Z,3.08
2024-04-30T14:54:17.877Z,4.63
2024-04-30T14:56:45.087Z,3.08
2024-04-30T14:59:12.162Z,4.03
2024-04-30T15:01:45.935Z,3.38
2024-04-30T15:04:13.296Z,4.00
2024-04-30T15:06:40.596Z,4.55
2024-04-30T15:09:10.933Z,4.30
2024-04-30T15:11:38.025Z,4.60
2024-04-30T15:14:08.033Z,3.83
2024-04-30T15:16:35.295Z,4.20
2024-04-30T15:19:02.294Z,3.67
2024-04-30T15:21:29.269Z,4.03
2024-04-30T15:23:56.172Z,4.88
2024-04-30T15:26:23.104Z,4.03
2024-04-30T15:28:50.047Z,4.40
2024-04-30T15:31:18.038Z,4.65
2024-04-30T15:33:45.114Z,4.22
2024-04-30T15:36:12.914Z,4.13
2024-04-30T15:38:40.208Z,4.60
2024-04-30T15:41:07.617Z,5.03
2024-04-30T15:43:36.526Z,6.00
2024-04-30T15:46:04.824Z,5.22
2024-04-30T15:48:32.163Z,5.20
2024-04-30T15:51:04.679Z,4.72
2024-04-30T15:53:31.826Z,4.32
2024-04-30T15:56:10.013Z,5.22
2024-04-30T15:58:45.413Z,4.72
2024-04-30T16:01:12.744Z,4.50
2024-04-30T16:03:39.767Z,3.28
2024-04-30T16:06:10.311Z,5.68
2024-04-30T16:08:37.586Z,5.97
2024-04-30T16:11:10.420Z,5.20
2024-04-30T16:13:39.935Z,4.20
2024-04-30T16:16:15.873Z,4.80
2024-04-30T16:18:47.254Z,6.53
2024-04-30T16:21:15.262Z,5.20
2024-04-30T16:23:43.370Z,4.80
2024-04-30T16:26:11.062Z,4.60
2024-04-30T16:28:43.188Z,6.22
2024-04-30T16:31:11.355Z,5.15
2024-04-30T16:33:38.748Z,5.63
2024-04-30T16:36:06.697Z,6.25
2024-04-30T16:38:33.666Z,5.13
2024-04-30T16:41:01.350Z,4.68
2024-04-30T16:43:28.282Z,5.32
2024-04-30T16:45:55.199Z,5.70
2024-04-30T16:48:22.331Z,5.95
2024-04-30T16:50:49.310Z,4.55
2024-04-30T16:53:16.197Z,4.55
2024-04-30T16:55:43.113Z,5.28
2024-04-30T16:58:12.224Z,6.18
2024-04-30T17:00:39.515Z,5.18
2024-04-30T17:03:06.499Z,5.13
2024-04-30T17:05:33.606Z,5.32
2024-04-30T17:08:01.321Z,4.70
2024-04-30T17:10:28.281Z,6.30
2024-04-30T17:12:55.420Z,5.25
2024-04-30T17:15:22.845Z,4.95
2024-04-30T17:17:49.935Z,6.25
2024-04-30T17:20:17.207Z,6.13
2024-04-30T17:22:44.074Z,5.70
2024-04-30T17:25:11.011Z,5.78
2024-04-30T17:27:37.956Z,5.93
2024-04-30T17:30:05.492Z,7.13
2024-04-30T17:32:32.749Z,5.80
2024-04-30T17:34:59.710Z,5.30
2024-04-30T17:37:26.808Z,6.07
2024-04-30T17:39:53.797Z,5.93
2024-04-30T17:42:20.733Z,6.13
2024-04-30T17:44:47.712Z,4.65
2024-04-30T17:47:14.588Z,6.43
2024-04-30T17:49:41.522Z,5.82
2024-04-30T17:52:08.451Z,6.55
2024-04-30T17:54:35.400Z,7.25
2024-04-30T17:57:02.431Z,7.38
2024-04-30T17:59:29.385Z,7.75
2024-04-30T18:01:56.375Z,7.18
2024-04-30T18:04:23.526Z,6.85
2024-04-30T18:06:50.784Z,7.75
2024-04-30T18:09:17.787Z,6.88
2024-04-30T18:11:45.235Z,9.48
2024-04-30T18:14:12.131Z,7.85
2024-04-30T18:16:39.846Z,6.30
2024-04-30T18:19:10.191Z,5.45
2024-04-30T18:21:38.075Z,6.45
2024-04-30T18:24:07.363Z,7.60
2024-04-30T18:26:42.164Z,6.38
2024-04-30T18:29:09.968Z,6.90
2024-04-30T18:31:36.911Z,5.30
2024-04-30T18:34:04.382Z,7.00
2024-04-30T18:36:39.855Z,6.97
2024-04-30T18:39:06.887Z,13.25
2024-04-30T18:41:33.900Z,8.20
2024-04-30T18:44:00.893Z,6.68
2024-04-30T18:46:28.192Z,7.60
2024-04-30T18:48:55.887Z,7.45
2024-04-30T18:51:23.419Z,7.97
2024-04-30T18:53:50.395Z,6.20
2024-04-30T18:56:18.309Z,7.07
2024-04-30T18:58:46.599Z,9.05
2024-04-30T19:01:14.976Z,8.68
2024-04-30T19:03:42.276Z,8.02
2024-04-30T19:06:11.058Z,8.02
2024-04-30T19:08:38.431Z,7.78
2024-04-30T19:11:06.682Z,9.50
2024-04-30T19:13:34.621Z,9.38
2024-04-30T19:16:02.583Z,8.90
2024-04-30T19:18:29.897Z,9.63
2024-04-30T19:20:57.111Z,7.72
2024-04-30T19:23:29.144Z,8.30
2024-04-30T19:25:56.355Z,8.10
2024-04-30T19:28:23.576Z,7.22
2024-04-30T19:30:50.816Z,8.82
2024-04-30T19:33:18.339Z,7.97
2024-04-30T19:35:47.855Z,9.65
2024-04-30T19:38:15.953Z,10.88
2024-04-30T19:40:44.474Z,9.18
2024-04-30T19:43:14.113Z,9.68
2024-04-30T19:45:42.161Z,8.40
2024-04-30T19:48:12.966Z,10.50
2024-04-30T19:50:42.490Z,10.13
2024-04-30T19:53:09.482Z,10.45
2024-04-30T19:55:36.428Z,8.02
2024-04-30T19:58:03.788Z,10.38
2024-04-30T20:00:30.716Z,8.00
2024-04-30T20:02:58.972Z,8.07
2024-04-30T20:05:26.012Z,7.43
2024-04-30T20:07:53.051Z,7.38
2024-04-30T20:10:19.980Z,7.72
2024-04-30T20:12:46.952Z,10.82
2024-04-30T20:15:13.934Z,8.98
2024-04-30T20:17:41.092Z,6.97
2024-04-30T20:20:08.492Z,7.03
2024-04-30T20:22:35.371Z,6.75
2024-04-30T20:25:02.314Z,7.97
2024-04-30T20:27:29.296Z,8.77
2024-04-30T20:29:56.148Z,7.13
2024-04-30T20:32:23.187Z,6.47
2024-04-30T20:34:50.126Z,10.35
2024-04-30T20:37:17.101Z,7.28
2024-04-30T20:39:43.981Z,7.60
2024-04-30T20:42:10.936Z,5.95
2024-04-30T20:44:37.974Z,8.57
2024-04-30T20:47:04.992Z,5.80
2024-04-30T20:49:31.849Z,9.40
2024-04-30T20:51:58.885Z,6.53
2024-04-30T20:54:25.899Z,5.90
2024-04-30T20:56:52.862Z,6.78
2024-04-30T20:59:19.711Z,7.55
2024-04-30T21:01:47.588Z,7.10
2024-04-30T21:04:14.710Z,8.75
2024-04-30T21:06:42.042Z,8.43
2024-04-30T21:09:09.071Z,7.60
2024-04-30T21:11:36.100Z,8.70
2024-04-30T21:14:03.160Z,9.80
2024-04-30T21:16:30.402Z,8.13
2024-04-30T21:18:57.459Z,7.95
2024-04-30T21:21:24.411Z,9.40
2024-04-30T21:23:51.458Z,9.40
2024-04-30T21:26:18.340Z,11.02
2024-04-30T21:28:45.276Z,9.90
2024-04-30T21:31:12.210Z,10.15
2024-04-30T21:33:42.442Z,11.55
2024-04-30T21:36:10.234Z,8.90
2024-04-30T21:38:37.332Z,12.27
2024-04-30T21:41:04.670Z,12.07
2024-04-30T21:43:31.545Z,11.68
2024-04-30T21:45:58.569Z,12.60
2024-04-30T21:48:25.685Z,12.15
2024-04-30T21:50:52.618Z,12.35
2024-04-30T21:53:19.534Z,13.85
2024-04-30T21:55:46.405Z,12.55
2024-04-30T21:58:13.288Z,12.38
2024-04-30T22:00:40.289Z,13.35
2024-04-30T22:03:07.266Z,13.55
2024-04-30T22:05:34.173Z,12.70
2024-04-30T22:08:01.063Z,12.38
2024-04-30T22:10:27.919Z,13.52
2024-04-30T22:12:55.031Z,12.82
2024-04-30T22:15:22.015Z,15.32
2024-04-30T22:17:49.830Z,12.15
2024-04-30T22:20:16.796Z,13.55
2024-04-30T22:22:43.729Z,13.15
2024-04-30T22:25:10.593Z,13.57
2024-04-30T22:27:37.576Z,11.07
2024-04-30T22:30:13.156Z,12.05
2024-04-30T22:32:50.329Z,13.27
2024-04-30T22:35:17.409Z,12.57
2024-04-30T22:37:44.268Z,11.98
2024-04-30T22:40:11.287Z,13.32
2024-04-30T22:42:38.664Z,11.10
2024-04-30T22:45:05.983Z,11.40
2024-04-30T22:47:32.980Z,11.77
2024-04-30T22:49:59.958Z,12.43
2024-04-30T22:52:26.815Z,12.40
2024-04-30T22:54:53.910Z,11.35
2024-04-30T22:57:20.829Z,10.50
2024-04-30T22:59:47.812Z,10.13
2024-04-30T23:02:14.659Z,11.38
2024-04-30T23:04:41.565Z,11.45
2024-04-30T23:07:08.389Z,10.73
2024-04-30T23:09:35.335Z,11.70
2024-04-30T23:12:02.217Z,9.70
2024-04-30T23:14:29.254Z,11.13
2024-04-30T23:16:56.250Z,9.65
2024-04-30T23:19:23.255Z,9.48
2024-04-30T23:21:50.281Z,11.80
2024-04-30T23:24:17.234Z,9.10
2024-04-30T23:26:44.157Z,10.07
2024-04-30T23:29:11.055Z,10.25
2024-04-30T23:31:38.033Z,10.60
2024-04-30T23:34:05.288Z,9.45
2024-04-30T23:36:32.141Z,10.52
2024-04-30T23:38:59.151Z,10.15
2024-04-30T23:41:26.049Z,9.63
2024-04-30T23:43:53.011Z,8.95
2024-04-30T23:46:19.863Z,8.60
2024-04-30T23:48:46.772Z,9.15
2024-04-30T23:51:14.156Z,8.88
2024-04-30T23:53:42.456Z,8.10
2024-04-30T23:56:09.730Z,9.75
2024-04-30T23:58:36.633Z,8.48
